createdAt,value
2023-04-18T00:00:32.567Z,100914.99
2023-04-18T00:03:26.282Z,100919.32
2023-04-18T00:05:55.345Z,100920.56
2023-04-18T00:08:24.141Z,100921.08
2023-04-18T00:10:56.000Z,100921.48
2023-04-18T00:13:25.322Z,100917.86
2023-04-18T00:15:54.494Z,100916.17
2023-04-18T00:18:27.993Z,100920.31
2023-04-18T00:20:59.757Z,100914.23
2023-04-18T00:23:48.808Z,100908.59
2023-04-18T00:26:17.397Z,100922.14
2023-04-18T00:28:46.521Z,100920.46
2023-04-18T00:31:28.340Z,100918.29
2023-04-18T00:34:15.044Z,100918.30
2023-04-18T00:36:57.304Z,100918.66
2023-04-18T00:39:28.769Z,100921.13
2023-04-18T00:41:57.543Z,100921.35
2023-04-18T00:44:28.787Z,100918.56
2023-04-18T00:46:57.484Z,100916.81
2023-04-18T00:49:31.701Z,100914.02
2023-04-18T00:52:09.114Z,100911.14
2023-04-18T00:54:44.839Z,100913.16
2023-04-18T00:57:14.048Z,100914.63
2023-04-18T00:59:45.068Z,100908.73
2023-04-18T01:02:13.803Z,100908.39
2023-04-18T01:04:45.615Z,100911.36
2023-04-18T01:07:16.661Z,100909.17
2023-04-18T01:09:45.853Z,100907.82
2023-04-18T01:12:14.731Z,100904.38
2023-04-18T01:14:48.859Z,100904.98
2023-04-18T01:17:19.598Z,100907.46
2023-04-18T01:19:56.981Z,100908.06
2023-04-18T01:22:31.186Z,100907.77
2023-04-18T01:24:59.822Z,100907.08
2023-04-18T01:27:31.360Z,100907.52
2023-04-18T01:30:05.368Z,100905.48
2023-04-18T01:32:37.450Z,100913.24
2023-04-18T01:35:06.921Z,100911.44
2023-04-18T01:37:36.760Z,100913.48
2023-04-18T01:40:09.424Z,100912.20
2023-04-18T01:42:45.366Z,100911.43
2023-04-18T01:45:13.958Z,100912.63
2023-04-18T01:47:51.225Z,100909.12
2023-04-18T01:50:23.115Z,100913.75
2023-04-18T01:52:59.983Z,100910.56
2023-04-18T01:55:28.553Z,100914.09
2023-04-18T01:58:00.104Z,100911.01
2023-04-18T02:00:37.390Z,100908.93
2023-04-18T02:03:22.830Z,100911.73
2023-04-18T02:05:52.088Z,100908.59
2023-04-18T02:08:20.745Z,100908.17
2023-04-18T02:10:49.271Z,100909.68
2023-04-18T02:13:28.755Z,100909.60
2023-04-18T02:16:00.630Z,100910.30
2023-04-18T02:18:34.872Z,100901.21
2023-04-18T02:21:09.801Z,100905.11
2023-04-18T02:23:38.525Z,100908.09
2023-04-18T02:26:12.687Z,100907.71
2023-04-18T02:28:41.565Z,100907.27
2023-04-18T02:31:15.275Z,100909.60
2023-04-18T02:33:46.006Z,100909.01
2023-04-18T02:36:15.807Z,100908.95
2023-04-18T02:38:50.034Z,100910.72
2023-04-18T02:41:21.991Z,100905.77
2023-04-18T02:44:00.711Z,100907.73
2023-04-18T02:46:29.629Z,100907.64
2023-04-18T02:48:58.669Z,100909.58
2023-04-18T02:51:28.299Z,100908.58
2023-04-18T02:53:57.599Z,100907.71
2023-04-18T02:56:26.394Z,100913.65
2023-04-18T02:59:13.687Z,100913.05
2023-04-18T03:01:59.223Z,100913.54
2023-04-18T03:04:30.873Z,100914.73
2023-04-18T03:07:04.696Z,100909.75
2023-04-18T03:09:47.000Z,100911.04
2023-04-18T03:12:21.568Z,100911.08
2023-04-18T03:14:50.172Z,100909.35
2023-04-18T03:17:28.528Z,100914.45
2023-04-18T03:19:57.120Z,100912.57
2023-04-18T03:22:27.968Z,100911.35
2023-04-18T03:25:00.878Z,100911.08
2023-04-18T03:28:08.105Z,100910.45
2023-04-18T03:30:39.859Z,100909.67
2023-04-18T03:33:17.138Z,100912.54
2023-04-18T03:35:47.229Z,100910.69
2023-04-18T03:38:16.135Z,100912.50
2023-04-18T03:40:45.134Z,100913.47
2023-04-18T03:43:23.256Z,100916.17
2023-04-18T03:45:54.400Z,100916.69
2023-04-18T03:48:23.276Z,100912.80
2023-04-18T03:50:52.072Z,100911.27
2023-04-18T03:53:29.078Z,100914.58
2023-04-18T03:55:58.132Z,100914.39
2023-04-18T03:58:37.676Z,100913.97
2023-04-18T04:01:08.096Z,100916.17
2023-04-18T04:04:03.052Z,100913.86
2023-04-18T04:06:32.507Z,100918.11
2023-04-18T04:09:02.116Z,100921.18
2023-04-18T04:11:39.815Z,100919.66
2023-04-18T04:14:11.040Z,100922.50
2023-04-18T04:16:43.403Z,100924.35
2023-04-18T04:19:16.932Z,100923.88
2023-04-18T04:22:05.905Z,100926.93
2023-04-18T04:24:42.266Z,100929.39
2023-04-18T04:27:13.739Z,100929.83
2023-04-18T04:29:43.947Z,100931.11
2023-04-18T04:32:17.123Z,100932.02
2023-04-18T04:34:46.728Z,100927.73
2023-04-18T04:37:18.811Z,100929.27
2023-04-18T04:40:10.722Z,100933.08
2023-04-18T04:42:47.362Z,100933.12
2023-04-18T04:45:20.228Z,100931.98
2023-04-18T04:47:51.766Z,100940.96
2023-04-18T04:50:22.360Z,100942.64
2023-04-18T04:52:54.031Z,100943.05
2023-04-18T04:55:23.930Z,100945.89
2023-04-18T04:58:03.694Z,100949.45
2023-04-18T05:00:44.408Z,100945.90
2023-04-18T05:03:18.365Z,100948.05
2023-04-18T05:05:50.127Z,100948.73
2023-04-18T05:08:19.001Z,100949.69
2023-04-18T05:10:58.354Z,100954.52
2023-04-18T05:13:30.307Z,100956.02
2023-04-18T05:16:12.736Z,100955.02
2023-04-18T05:18:41.753Z,100957.35
2023-04-18T05:21:16.347Z,100957.70
2023-04-18T05:23:48.085Z,100956.89
2023-04-18T05:26:19.517Z,100956.54
2023-04-18T05:28:48.429Z,100955.66
2023-04-18T05:31:19.902Z,100951.54
2023-04-18T05:33:53.275Z,100951.15
2023-04-18T05:36:25.230Z,100957.67
2023-04-18T05:38:53.960Z,100957.12
2023-04-18T05:41:43.167Z,100958.54
2023-04-18T05:44:14.763Z,100962.08
2023-04-18T05:46:52.250Z,100962.28
2023-04-18T05:49:21.145Z,100965.48
2023-04-18T05:51:50.240Z,100963.53
2023-04-18T05:54:21.581Z,100968.80
2023-04-18T05:56:57.237Z,100967.37
2023-04-18T05:59:27.034Z,100966.27
2023-04-18T06:01:55.561Z,100964.05
2023-04-18T06:04:24.665Z,100964.52
2023-04-18T06:06:56.592Z,100968.84
2023-04-18T06:09:25.286Z,100967.18
2023-04-18T06:11:54.378Z,100970.31
2023-04-18T06:14:22.953Z,100968.89
2023-04-18T06:16:51.758Z,100974.59
2023-04-18T06:19:23.761Z,100972.59
2023-04-18T06:21:53.219Z,100977.45
2023-04-18T06:24:23.967Z,100979.16
2023-04-18T06:27:00.228Z,100982.10
2023-04-18T06:29:33.763Z,100983.30
2023-04-18T06:32:07.243Z,100985.95
2023-04-18T06:34:41.102Z,100988.99
2023-04-18T06:37:09.951Z,100988.63
2023-04-18T06:39:38.585Z,100992.88
2023-04-18T06:42:09.725Z,100997.65
2023-04-18T06:44:45.882Z,100999.34
2023-04-18T06:47:16.930Z,100998.23
2023-04-18T06:49:45.623Z,100998.28
2023-04-18T06:52:14.732Z,101003.98
2023-04-18T06:54:43.741Z,101003.27
2023-04-18T06:57:16.080Z,100998.70
2023-04-18T06:59:44.946Z,101001.98
2023-04-18T07:02:13.905Z,101000.61
2023-04-18T07:04:43.084Z,101003.83
2023-04-18T07:07:12.157Z,101006.77
2023-04-18T07:09:40.910Z,101007.95
2023-04-18T07:12:09.875Z,101004.05
2023-04-18T07:14:39.253Z,101006.73
2023-04-18T07:17:07.942Z,101010.42
2023-04-18T07:19:36.710Z,101010.94
2023-04-18T07:22:08.257Z,101012.25
2023-04-18T07:24:37.053Z,101005.84
2023-04-18T07:27:09.854Z,101013.15
2023-04-18T07:29:42.813Z,101019.91
2023-04-18T07:32:12.525Z,101021.20
2023-04-18T07:34:45.831Z,101022.20
2023-04-18T07:37:19.324Z,101024.92
2023-04-18T07:39:53.139Z,101026.66
2023-04-18T07:42:21.804Z,101025.64
2023-04-18T07:44:50.707Z,101028.02
2023-04-18T07:47:31.379Z,101029.07
2023-04-18T07:50:04.980Z,101031.57
2023-04-18T07:52:37.385Z,101031.70
2023-04-18T07:55:07.984Z,101035.21
2023-04-18T07:57:36.916Z,101038.01
2023-04-18T08:00:07.234Z,101038.80
2023-04-18T08:02:42.115Z,101041.02
2023-04-18T08:05:11.249Z,101045.02
2023-04-18T08:07:40.190Z,101048.83
2023-04-18T08:10:12.189Z,101053.45
2023-04-18T08:12:41.386Z,101052.18
2023-04-18T08:15:10.901Z,101048.59
2023-04-18T08:17:42.921Z,101048.42
2023-04-18T08:20:13.369Z,101055.41
2023-04-18T08:23:02.077Z,101057.49
2023-04-18T08:25:36.706Z,101054.04
2023-04-18T08:28:05.743Z,101052.00
2023-04-18T08:30:36.991Z,101050.68
2023-04-18T08:33:06.000Z,101057.02
2023-04-18T08:35:46.452Z,101052.64
2023-04-18T08:38:22.692Z,101055.69
2023-04-18T08:40:51.510Z,101062.06
2023-04-18T08:43:22.955Z,101060.48
2023-04-18T08:45:59.789Z,101064.11
2023-04-18T08:48:28.913Z,101061.52
2023-04-18T08:50:59.164Z,101064.37
2023-04-18T08:53:28.658Z,101065.07
2023-04-18T08:55:58.284Z,101067.92
2023-04-18T08:58:28.060Z,101068.72
2023-04-18T09:00:57.303Z,101069.62
2023-04-18T09:03:43.402Z,101071.54
2023-04-18T09:06:30.478Z,101074.16
2023-04-18T09:08:59.309Z,101070.70
2023-04-18T09:11:34.578Z,101073.46
2023-04-18T09:14:03.921Z,101073.83
2023-04-18T09:16:48.521Z,101073.05
2023-04-18T09:19:21.780Z,101069.48
2023-04-18T09:21:59.225Z,101075.44
2023-04-18T09:24:32.180Z,101072.11
2023-04-18T09:27:12.299Z,101071.19
2023-04-18T09:29:47.248Z,101066.46
2023-04-18T09:32:27.363Z,101070.20
2023-04-18T09:35:05.680Z,101068.95
2023-04-18T09:37:35.752Z,101071.16
2023-04-18T09:40:18.428Z,101069.78
2023-04-18T09:42:51.276Z,101074.17
2023-04-18T09:45:20.946Z,101070.75
2023-04-18T09:47:50.538Z,101073.04
2023-04-18T09:50:21.623Z,101071.73
2023-04-18T09:52:51.777Z,101074.91
2023-04-18T09:55:33.852Z,101070.70
2023-04-18T09:58:04.540Z,101059.58
2023-04-18T10:00:34.546Z,101067.80
2023-04-18T10:03:10.986Z,101067.50
2023-04-18T10:05:41.817Z,101070.83
2023-04-18T10:08:13.198Z,101072.90
2023-04-18T10:10:41.646Z,101070.28
2023-04-18T10:13:14.275Z,101070.73
2023-04-18T10:15:44.271Z,101075.98
2023-04-18T10:18:17.000Z,101077.45
2023-04-18T10:21:01.001Z,101072.48
2023-04-18T10:23:36.612Z,101074.64
2023-04-18T10:26:07.864Z,101068.23
2023-04-18T10:29:02.862Z,101070.58
2023-04-18T10:31:39.532Z,101067.84
2023-04-18T10:34:11.023Z,101065.44
2023-04-18T10:37:06.357Z,101062.36
2023-04-18T10:40:07.068Z,101061.67
2023-04-18T10:42:48.160Z,101064.13
2023-04-18T10:45:27.035Z,101061.62
2023-04-18T10:48:25.137Z,101061.02
2023-04-18T10:51:14.524Z,101062.08
2023-04-18T10:53:54.367Z,101058.85
2023-04-18T10:56:23.847Z,101061.09
2023-04-18T10:58:53.878Z,101059.44
2023-04-18T11:01:33.140Z,101058.08
2023-04-18T11:04:02.437Z,101056.08
2023-04-18T11:06:31.821Z,101058.20
2023-04-18T11:09:11.882Z,101055.94
2023-04-18T11:11:44.326Z,101058.05
2023-04-18T11:14:13.326Z,101057.84
2023-04-18T11:16:45.942Z,101058.75
2023-04-18T11:19:25.909Z,101054.17
2023-04-18T11:22:01.314Z,101053.40
2023-04-18T11:24:30.425Z,101051.86
2023-04-18T11:27:00.544Z,101048.86
2023-04-18T11:29:32.917Z,101045.73
2023-04-18T11:32:23.173Z,101044.79
2023-04-18T11:34:55.348Z,101048.52
2023-04-18T11:37:24.144Z,101042.57
2023-04-18T11:39:56.027Z,101043.18
2023-04-18T11:42:31.566Z,101040.44
2023-04-18T11:45:00.884Z,101037.73
2023-04-18T11:47:32.013Z,101043.64
2023-04-18T11:50:06.927Z,101042.88
2023-04-18T11:52:36.892Z,101045.36
2023-04-18T11:55:25.145Z,101043.16
2023-04-18T11:57:59.332Z,101045.67
2023-04-18T12:00:40.101Z,101049.30
2023-04-18T12:03:23.223Z,101049.64
2023-04-18T12:06:03.337Z,101049.35
2023-04-18T12:08:33.093Z,101049.38
2023-04-18T12:11:02.090Z,101043.46
2023-04-18T12:13:35.244Z,101047.03
2023-04-18T12:16:04.460Z,101042.79
2023-04-18T12:18:34.287Z,101045.91
2023-04-18T12:21:06.221Z,101046.61
2023-04-18T12:23:40.543Z,101045.44
2023-04-18T12:26:21.285Z,101046.70
2023-04-18T12:28:54.205Z,101053.35
2023-04-18T12:31:23.306Z,101049.12
2023-04-18T12:33:54.729Z,101049.73
2023-04-18T12:36:28.649Z,101052.16
2023-04-18T12:38:57.538Z,101054.33
2023-04-18T12:41:28.881Z,101054.85
2023-04-18T12:43:57.748Z,101053.24
2023-04-18T12:46:26.717Z,101052.77
2023-04-18T12:48:57.325Z,101054.73
2023-04-18T12:51:28.014Z,101053.46
2023-04-18T12:54:05.868Z,101056.52
2023-04-18T12:56:34.934Z,101051.02
2023-04-18T12:59:04.328Z,101053.54
2023-04-18T13:01:33.157Z,101053.42
2023-04-18T13:04:12.270Z,101059.33
2023-04-18T13:06:42.989Z,101053.98
2023-04-18T13:09:12.540Z,101048.27
2023-04-18T13:11:41.797Z,101052.23
2023-04-18T13:14:10.594Z,101043.98
2023-04-18T13:16:43.854Z,101041.35
2023-04-18T13:19:15.876Z,101036.84
2023-04-18T13:21:46.475Z,101033.48
2023-04-18T13:24:17.409Z,101038.52
2023-04-18T13:26:47.853Z,101042.58
2023-04-18T13:29:19.997Z,101037.05
2023-04-18T13:31:49.117Z,101034.75
2023-04-18T13:34:18.398Z,101032.16
2023-04-18T13:36:53.225Z,101034.52
2023-04-18T13:39:30.521Z,101032.98
2023-04-18T13:42:03.820Z,101035.02
2023-04-18T13:44:32.816Z,101032.44
2023-04-18T13:47:03.033Z,101030.88
2023-04-18T13:49:35.682Z,101035.05
2023-04-18T13:52:05.174Z,101028.25
2023-04-18T13:54:34.004Z,101035.19
2023-04-18T13:57:04.677Z,101027.30
2023-04-18T13:59:34.168Z,101030.91
2023-04-18T14:02:08.071Z,101033.89
2023-04-18T14:04:37.839Z,101033.86
2023-04-18T14:07:09.482Z,101039.10
2023-04-18T14:09:38.737Z,101034.64
2023-04-18T14:12:10.663Z,101037.05
2023-04-18T14:14:39.364Z,101035.52
2023-04-18T14:17:08.567Z,101038.52
2023-04-18T14:19:46.658Z,101036.37
2023-04-18T14:22:15.524Z,101037.57
2023-04-18T14:24:44.037Z,101036.55
2023-04-18T14:27:12.718Z,101032.77
2023-04-18T14:29:41.407Z,101034.30
2023-04-18T14:32:10.099Z,101032.86
2023-04-18T14:34:38.917Z,101031.23
2023-04-18T14:37:07.872Z,101032.60
2023-04-18T14:39:38.199Z,101033.04
2023-04-18T14:42:06.895Z,101028.07
2023-04-18T14:44:35.992Z,101030.71
2023-04-18T14:47:05.928Z,101030.60
2023-04-18T14:49:34.776Z,101027.11
2023-04-18T14:52:08.188Z,101026.34
2023-04-18T14:54:36.965Z,101026.74
2023-04-18T14:57:08.772Z,101023.02
2023-04-18T14:59:37.820Z,101018.20
2023-04-18T15:02:06.673Z,101016.02
2023-04-18T15:04:41.833Z,101017.31
2023-04-18T15:07:10.642Z,101015.02
2023-04-18T15:09:40.155Z,101010.29
2023-04-18T15:12:09.238Z,101011.49
2023-04-18T15:14:38.244Z,101009.98
2023-04-18T15:17:07.531Z,101006.66
2023-04-18T15:19:39.658Z,101011.09
2023-04-18T15:22:09.202Z,100995.77
2023-04-18T15:24:41.594Z,101012.38
2023-04-18T15:27:11.159Z,101015.23
2023-04-18T15:29:40.799Z,101013.78
2023-04-18T15:32:13.206Z,101010.05
2023-04-18T15:34:42.153Z,101010.54
2023-04-18T15:37:11.162Z,101009.50
2023-04-18T15:39:41.375Z,101006.77
2023-04-18T15:42:10.509Z,101007.41
2023-04-18T15:44:39.693Z,101010.54
2023-04-18T15:47:12.493Z,101014.27
2023-04-18T15:49:41.340Z,101014.80
2023-04-18T15:52:10.311Z,101017.32
2023-04-18T15:54:42.096Z,101019.17
2023-04-18T15:57:11.821Z,101016.48
2023-04-18T15:59:41.117Z,101016.27
2023-04-18T16:02:10.459Z,101014.78
2023-04-18T16:04:39.647Z,101015.48
2023-04-18T16:07:09.442Z,101014.36
2023-04-18T16:09:38.417Z,101015.30
2023-04-18T16:12:08.319Z,101016.55
2023-04-18T16:14:40.181Z,101015.23
2023-04-18T16:17:09.199Z,101011.20
2023-04-18T16:19:41.490Z,101010.63
2023-04-18T16:22:12.382Z,101004.98
2023-04-18T16:24:42.340Z,101006.59
2023-04-18T16:27:11.750Z,101007.14
2023-04-18T16:29:40.722Z,101009.45
2023-04-18T16:32:11.076Z,101008.27
2023-04-18T16:34:42.997Z,101008.65
2023-04-18T16:37:15.110Z,101004.05
2023-04-18T16:39:44.472Z,101006.52
2023-04-18T16:42:15.688Z,101002.52
2023-04-18T16:44:46.453Z,101010.50
2023-04-18T16:47:15.541Z,101009.08
2023-04-18T16:49:47.010Z,101010.38
2023-04-18T16:52:17.430Z,101013.46
2023-04-18T16:54:46.831Z,101014.16
2023-04-18T16:57:17.773Z,101012.73
2023-04-18T16:59:46.443Z,101017.00
2023-04-18T17:02:18.825Z,101021.23
2023-04-18T17:04:50.868Z,101018.08
2023-04-18T17:07:19.884Z,101017.02
2023-04-18T17:09:49.079Z,101017.22
2023-04-18T17:12:21.241Z,101017.25
2023-04-18T17:14:50.337Z,101016.37
2023-04-18T17:17:26.703Z,101013.98
2023-04-18T17:19:55.791Z,101015.15
2023-04-18T17:22:25.825Z,101017.64
2023-04-18T17:24:57.885Z,101015.98
2023-04-18T17:27:27.413Z,101017.59
2023-04-18T17:29:56.438Z,101021.95
2023-04-18T17:32:25.103Z,101021.14
2023-04-18T17:34:56.832Z,101020.59
2023-04-18T17:37:28.857Z,101021.92
2023-04-18T17:39:59.085Z,101024.52
2023-04-18T17:42:28.665Z,101021.93
2023-04-18T17:44:58.332Z,101018.98
2023-04-18T17:47:31.113Z,101021.94
2023-04-18T17:50:01.861Z,101016.32
2023-04-18T17:52:31.578Z,101022.82
2023-04-18T17:55:04.457Z,101019.09
2023-04-18T17:57:35.434Z,101019.23
2023-04-18T18:00:10.679Z,101017.29
2023-04-18T18:02:43.029Z,101018.85
2023-04-18T18:05:17.714Z,101015.80
2023-04-18T18:07:48.489Z,101024.21
2023-04-18T18:10:19.834Z,101027.69
2023-04-18T18:12:50.314Z,101027.77
2023-04-18T18:15:19.966Z,101026.23
2023-04-18T18:17:50.998Z,101026.48
2023-04-18T18:20:21.724Z,101018.77
2023-04-18T18:22:51.885Z,101024.29
2023-04-18T18:25:23.098Z,101023.88
2023-04-18T18:27:54.914Z,101026.19
2023-04-18T18:30:24.522Z,101023.14
2023-04-18T18:32:54.767Z,101021.03
2023-04-18T18:35:24.430Z,101019.95
2023-04-18T18:37:53.565Z,101021.81
2023-04-18T18:40:22.652Z,101017.66
2023-04-18T18:42:54.921Z,101018.40
2023-04-18T18:45:26.378Z,101019.02
2023-04-18T18:48:00.252Z,101019.41
2023-04-18T18:50:30.813Z,101020.35
2023-04-18T18:53:06.832Z,101021.33
2023-04-18T18:55:37.156Z,101021.14
2023-04-18T18:58:08.935Z,101018.66
2023-04-18T19:00:42.958Z,101019.59
2023-04-18T19:03:13.785Z,101018.36
2023-04-18T19:05:54.555Z,101018.06
2023-04-18T19:08:25.058Z,101016.59
2023-04-18T19:10:55.600Z,101014.45
2023-04-18T19:13:27.603Z,101015.71
2023-04-18T19:15:59.483Z,101015.66
2023-04-18T19:18:31.478Z,101017.41
2023-04-18T19:21:01.681Z,101017.01
2023-04-18T19:23:34.366Z,101019.34
2023-04-18T19:26:04.503Z,101018.25
2023-04-18T19:28:35.010Z,101022.98
2023-04-18T19:31:05.993Z,101021.17
2023-04-18T19:33:36.113Z,101020.89
2023-04-18T19:36:06.500Z,101020.31
2023-04-18T19:38:36.295Z,101018.34
2023-04-18T19:41:06.219Z,101015.65
2023-04-18T19:43:39.072Z,101012.37
2023-04-18T19:46:10.790Z,101011.02
2023-04-18T19:48:41.782Z,101010.92
2023-04-18T19:51:13.172Z,101009.45
2023-04-18T19:53:44.144Z,101006.92
2023-04-18T19:56:17.913Z,101002.75
2023-04-18T19:58:49.330Z,100991.30
2023-04-18T20:01:21.762Z,101003.95
2023-04-18T20:03:53.198Z,101000.90
2023-04-18T20:06:24.773Z,101001.41
2023-04-18T20:08:55.225Z,100999.02
2023-04-18T20:11:25.328Z,100996.95
2023-04-18T20:13:56.099Z,100993.81
2023-04-18T20:16:25.747Z,100994.71
2023-04-18T20:18:57.112Z,100994.96
2023-04-18T20:21:26.325Z,100991.49
2023-04-18T20:23:57.204Z,100991.31
2023-04-18T20:26:26.784Z,100989.73
2023-04-18T20:28:57.226Z,100990.45
2023-04-18T20:31:26.820Z,100986.03
2023-04-18T20:33:57.009Z,100985.40
2023-04-18T20:36:31.754Z,100987.88
2023-04-18T20:39:21.724Z,100985.48
2023-04-18T20:41:51.761Z,100980.41
2023-04-18T20:44:47.526Z,100983.92
2023-04-18T20:47:39.325Z,100981.34
2023-04-18T20:50:42.299Z,100984.00
2023-04-18T20:53:29.881Z,100977.23
2023-04-18T20:56:27.476Z,100977.73
2023-04-18T20:59:02.304Z,100972.52
2023-04-18T21:01:55.061Z,100972.17
2023-04-18T21:04:27.869Z,100969.97
2023-04-18T21:07:25.183Z,100967.20
2023-04-18T21:10:11.414Z,100969.69
2023-04-18T21:12:46.864Z,100966.52
2023-04-18T21:15:41.595Z,100965.50
2023-04-18T21:18:34.184Z,100964.98
2023-04-18T21:21:12.074Z,100954.78
2023-04-18T21:23:59.304Z,100945.40
2023-04-18T21:26:28.895Z,100954.10
2023-04-18T21:29:58.387Z,100955.91
2023-04-18T21:32:52.013Z,100952.02
2023-04-18T21:35:29.989Z,100950.15
2023-04-18T21:38:04.620Z,100950.08
2023-04-18T21:40:40.365Z,100947.45
2023-04-18T21:43:12.215Z,100947.64
2023-04-18T21:45:44.541Z,100943.08
2023-04-18T21:48:46.460Z,100943.56
2023-04-18T21:51:17.571Z,100939.00
2023-04-18T21:54:09.918Z,100937.80
2023-04-18T21:57:24.406Z,100936.23
2023-04-18T21:59:57.510Z,100933.65
2023-04-18T22:02:56.017Z,100931.98
2023-04-18T22:05:33.509Z,100929.83
2023-04-18T22:08:35.493Z,100925.61
2023-04-18T22:11:09.411Z,100922.13
2023-04-18T22:13:38.223Z,100917.61
2023-04-18T22:16:09.689Z,100914.16
2023-04-18T22:18:38.554Z,100911.45
2023-04-18T22:21:09.659Z,100908.11
2023-04-18T22:23:38.372Z,100897.05
2023-04-18T22:26:06.967Z,100907.99
2023-04-18T22:28:36.178Z,100905.07
2023-04-18T22:31:05.538Z,100903.14
2023-04-18T22:33:34.503Z,100903.05
2023-04-18T22:36:03.779Z,100900.55
2023-04-18T22:38:32.445Z,100899.63
2023-04-18T22:41:00.984Z,100895.00
2023-04-18T22:43:38.733Z,100897.68
2023-04-18T22:46:07.783Z,100895.83
2023-04-18T22:48:36.615Z,100892.42
2023-04-18T22:51:06.522Z,100890.00
2023-04-18T22:53:37.644Z,100882.37
2023-04-18T22:56:09.427Z,100882.44
2023-04-18T22:58:38.025Z,100879.52
2023-04-18T23:01:06.852Z,100876.17
2023-04-18T23:03:35.858Z,100878.60
2023-04-18T23:06:10.112Z,100877.13
2023-04-18T23:08:41.560Z,100876.00
2023-04-18T23:11:13.727Z,100869.02
2023-04-18T23:13:42.956Z,100870.88
2023-04-18T23:16:11.862Z,100871.05
2023-04-18T23:18:40.507Z,100866.30
2023-04-18T23:21:12.464Z,100864.78
2023-04-18T23:23:41.121Z,100862.71
2023-04-18T23:26:15.549Z,100863.42
2023-04-18T23:28:47.425Z,100859.60
2023-04-18T23:31:16.570Z,100849.92
2023-04-18T23:33:49.290Z,100847.72
2023-04-18T23:36:21.489Z,100847.16
2023-04-18T23:38:52.937Z,100840.91
2023-04-18T23:41:21.844Z,100836.73
2023-04-18T23:43:58.650Z,100836.65
2023-04-18T23:46:30.165Z,100839.52
2023-04-18T23:49:01.189Z,100836.27
2023-04-18T23:51:32.631Z,100830.48
2023-04-18T23:54:03.572Z,100829.77
2023-04-18T23:56:35.146Z,100823.68
2023-04-18T23:59:07.412Z,100824.45
